sensor_id;sensor_type;location;lat;lon;timestamp;pressure;altitude;pressure_sealevel;temperature;humidity
5298;BME280;14738;42.668;23.250;2022-08-19T00:02:25;48410.16;;;-141.90;44.62
5298;BME280;14738;42.668;23.250;2022-08-19T00:04:50;48410.16;;;-141.90;44.10
5298;BME280;14738;42.668;23.250;2022-08-19T00:07:21;48410.16;;;-141.90;44.48
5298;BME280;14738;42.668;23.250;2022-08-19T00:09:46;48398.25;;;-141.90;44.14
5298;BME280;14738;42.668;23.250;2022-08-19T00:12:12;48441.91;;;-141.90;43.97
5298;BME280;14738;42.668;23.250;2022-08-19T00:14:38;48388.31;;;-141.90;43.75
5298;BME280;14738;42.668;23.250;2022-08-19T00:17:05;48426.03;;;-141.90;43.71
5298;BME280;14738;42.668;23.250;2022-08-19T00:19:32;48420.09;;;-141.90;43.62
5298;BME280;14738;42.668;23.250;2022-08-19T00:21:58;48416.09;;;-141.90;43.34
5298;BME280;14738;42.668;23.250;2022-08-19T00:24:24;48430.00;;;-141.90;44.03
5298;BME280;14738;42.668;23.250;2022-08-19T00:26:50;48424.06;;;-141.90;44.44
5298;BME280;14738;42.668;23.250;2022-08-19T00:29:18;48400.22;;;-141.90;44.11
5298;BME280;14738;42.668;23.250;2022-08-19T00:31:44;48384.34;;;-141.90;43.91
5298;BME280;14738;42.668;23.250;2022-08-19T00:34:11;48412.13;;;-141.90;44.09
5298;BME280;14738;42.668;23.250;2022-08-19T00:36:37;48398.25;;;-141.90;45.11
5298;BME280;14738;42.668;23.250;2022-08-19T00:39:03;48402.22;;;-141.90;44.83
5298;BME280;14738;42.668;23.250;2022-08-19T00:41:28;48418.09;;;-141.90;44.29
5298;BME280;14738;42.668;23.250;2022-08-19T00:44:11;48406.19;;;-141.90;45.05
5298;BME280;14738;42.668;23.250;2022-08-19T00:46:40;48378.38;;;-141.90;44.67
5298;BME280;14738;42.668;23.250;2022-08-19T00:49:10;48414.13;;;-141.90;44.85
5298;BME280;14738;42.668;23.250;2022-08-19T00:51:37;48453.81;;;-141.90;44.86
5298;BME280;14738;42.668;23.250;2022-08-19T00:54:03;48406.19;;;-141.90;45.16
5298;BME280;14738;42.668;23.250;2022-08-19T00:56:29;48414.13;;;-141.90;45.25
5298;BME280;14738;42.668;23.250;2022-08-19T00:58:56;48394.28;;;-141.90;44.81
5298;BME280;14738;42.668;23.250;2022-08-19T01:01:23;48386.34;;;-141.90;45.36
5298;BME280;14738;42.668;23.250;2022-08-19T01:03:48;48416.09;;;-141.90;45.62
5298;BME280;14738;42.668;23.250;2022-08-19T01:06:13;48404.19;;;-141.90;45.42
5298;BME280;14738;42.668;23.250;2022-08-19T01:08:39;48394.28;;;-141.90;46.30
5298;BME280;14738;42.668;23.250;2022-08-19T01:11:06;48412.13;;;-141.90;45.91
5298;BME280;14738;42.668;23.250;2022-08-19T01:13:34;48390.31;;;-141.90;45.84
5298;BME280;14738;42.668;23.250;2022-08-19T01:16:09;48394.28;;;-141.90;46.89
5298;BME280;14738;42.668;23.250;2022-08-19T01:18:40;48378.38;;;-141.90;47.08
5298;BME280;14738;42.668;23.250;2022-08-19T01:21:14;48410.16;;;-141.90;47.46
5298;BME280;14738;42.668;23.250;2022-08-19T01:23:41;48386.34;;;-141.90;47.51
5298;BME280;14738;42.668;23.250;2022-08-19T01:26:17;48406.19;;;-141.90;47.41
5298;BME280;14738;42.668;23.250;2022-08-19T01:28:44;48406.19;;;-141.90;47.44
5298;BME280;14738;42.668;23.250;2022-08-19T01:31:18;48392.28;;;-141.90;48.64
5298;BME280;14738;42.668;23.250;2022-08-19T01:33:45;48374.41;;;-141.90;48.54
5298;BME280;14738;42.668;23.250;2022-08-19T01:36:15;48394.28;;;-141.90;49.19
5298;BME280;14738;42.668;23.250;2022-08-19T01:38:43;48384.34;;;-141.90;50.25
5298;BME280;14738;42.668;23.250;2022-08-19T01:41:10;48350.59;;;-141.90;50.07
5298;BME280;14738;42.668;23.250;2022-08-19T01:43:36;48406.19;;;-141.90;49.45
5298;BME280;14738;42.668;23.250;2022-08-19T01:46:03;48400.22;;;-141.90;49.55
5298;BME280;14738;42.668;23.250;2022-08-19T01:48:37;48394.28;;;-141.90;48.90
5298;BME280;14738;42.668;23.250;2022-08-19T01:51:03;48398.25;;;-141.90;49.72
5298;BME280;14738;42.668;23.250;2022-08-19T01:53:28;48386.34;;;-141.90;50.40
5298;BME280;14738;42.668;23.250;2022-08-19T01:55:54;48380.38;;;-141.90;50.42
5298;BME280;14738;42.668;23.250;2022-08-19T01:58:24;48404.19;;;-141.90;50.07
5298;BME280;14738;42.668;23.250;2022-08-19T02:00:54;48388.31;;;-141.90;49.90
5298;BME280;14738;42.668;23.250;2022-08-19T02:03:19;48394.28;;;-141.90;49.70
5298;BME280;14738;42.668;23.250;2022-08-19T02:05:45;48390.31;;;-141.90;49.93
5298;BME280;14738;42.668;23.250;2022-08-19T02:08:11;48384.34;;;-141.90;50.58
5298;BME280;14738;42.668;23.250;2022-08-19T02:10:43;48378.38;;;-141.90;51.24
5298;BME280;14738;42.668;23.250;2022-08-19T02:13:10;48390.31;;;-141.90;52.51
5298;BME280;14738;42.668;23.250;2022-08-19T02:15:36;48370.44;;;-141.90;52.83
5298;BME280;14738;42.668;23.250;2022-08-19T02:18:02;48394.28;;;-141.90;52.83
5298;BME280;14738;42.668;23.250;2022-08-19T02:20:27;48396.25;;;-141.90;52.18
5298;BME280;14738;42.668;23.250;2022-08-19T02:22:53;48388.31;;;-141.90;51.67
5298;BME280;14738;42.668;23.250;2022-08-19T02:25:18;48358.53;;;-141.90;51.77
5298;BME280;14738;42.668;23.250;2022-08-19T02:27:44;48386.34;;;-141.90;51.91
5298;BME280;14738;42.668;23.250;2022-08-19T02:30:13;48374.41;;;-141.90;51.70
5298;BME280;14738;42.668;23.250;2022-08-19T02:32:41;48348.63;;;-141.90;53.47
5298;BME280;14738;42.668;23.250;2022-08-19T02:35:07;48368.47;;;-141.90;53.04
5298;BME280;14738;42.668;23.250;2022-08-19T02:37:34;48400.22;;;-141.90;52.12
5298;BME280;14738;42.668;23.250;2022-08-19T02:40:18;48362.50;;;-141.90;51.89
5298;BME280;14738;42.668;23.250;2022-08-19T02:42:44;48350.59;;;-141.90;51.65
5298;BME280;14738;42.668;23.250;2022-08-19T02:45:11;48366.47;;;-141.90;52.11
5298;BME280;14738;42.668;23.250;2022-08-19T02:47:37;48344.63;;;-141.90;52.54
5298;BME280;14738;42.668;23.250;2022-08-19T02:50:03;48366.47;;;-141.90;52.44
5298;BME280;14738;42.668;23.250;2022-08-19T02:52:29;48376.41;;;-141.90;52.71
5298;BME280;14738;42.668;23.250;2022-08-19T02:54:56;48346.63;;;-141.90;52.51
5298;BME280;14738;42.668;23.250;2022-08-19T02:57:23;48368.47;;;-141.90;52.47
5298;BME280;14738;42.668;23.250;2022-08-19T02:59:48;48394.28;;;-141.90;52.49
5298;BME280;14738;42.668;23.250;2022-08-19T03:02:15;48352.59;;;-141.90;52.56
5298;BME280;14738;42.668;23.250;2022-08-19T03:04:40;48360.53;;;-141.90;52.83
5298;BME280;14738;42.668;23.250;2022-08-19T03:07:06;48358.53;;;-141.90;52.58
5298;BME280;14738;42.668;23.250;2022-08-19T03:09:32;48382.34;;;-141.90;53.27
5298;BME280;14738;42.668;23.250;2022-08-19T03:11:57;48356.56;;;-141.90;53.68
5298;BME280;14738;42.668;23.250;2022-08-19T03:14:23;48360.53;;;-141.90;54.21
5298;BME280;14738;42.668;23.250;2022-08-19T03:16:51;48362.50;;;-141.90;53.31
5298;BME280;14738;42.668;23.250;2022-08-19T03:19:19;48366.47;;;-141.90;53.98
5298;BME280;14738;42.668;23.250;2022-08-19T03:21:45;48346.63;;;-141.90;54.52
5298;BME280;14738;42.668;23.250;2022-08-19T03:24:11;48390.31;;;-141.90;54.27
5298;BME280;14738;42.668;23.250;2022-08-19T03:26:43;48376.41;;;-141.90;53.87
5298;BME280;14738;42.668;23.250;2022-08-19T03:29:09;48374.41;;;-141.90;54.18
5298;BME280;14738;42.668;23.250;2022-08-19T03:31:37;48390.31;;;-141.90;54.33
5298;BME280;14738;42.668;23.250;2022-08-19T03:34:03;48386.34;;;-141.90;55.63
5298;BME280;14738;42.668;23.250;2022-08-19T03:36:29;48374.41;;;-141.90;55.82
5298;BME280;14738;42.668;23.250;2022-08-19T03:38:56;48376.41;;;-141.90;55.47
5298;BME280;14738;42.668;23.250;2022-08-19T03:41:25;48362.50;;;-141.90;56.06
5298;BME280;14738;42.668;23.250;2022-08-19T03:43:53;48394.28;;;-141.90;55.21
5298;BME280;14738;42.668;23.250;2022-08-19T03:46:26;48358.53;;;-141.90;56.04
5298;BME280;14738;42.668;23.250;2022-08-19T03:48:54;48362.50;;;-141.90;55.90
5298;BME280;14738;42.668;23.250;2022-08-19T03:51:23;48394.28;;;-141.90;56.05
5298;BME280;14738;42.668;23.250;2022-08-19T03:53:50;48364.50;;;-141.90;55.76
5298;BME280;14738;42.668;23.250;2022-08-19T03:56:17;48392.28;;;-141.90;55.33
5298;BME280;14738;42.668;23.250;2022-08-19T03:58:43;48362.50;;;-141.90;55.16
5298;BME280;14738;42.668;23.250;2022-08-19T04:01:15;48366.47;;;-141.90;55.31
5298;BME280;14738;42.668;23.250;2022-08-19T04:03:41;48354.56;;;-141.90;54.39
5298;BME280;14738;42.668;23.250;2022-08-19T04:06:30;48408.16;;;-141.90;54.38
5298;BME280;14738;42.668;23.250;2022-08-19T04:08:58;48356.56;;;-141.90;54.06
5298;BME280;14738;42.668;23.250;2022-08-19T04:11:30;48394.28;;;-141.90;53.83
5298;BME280;14738;42.668;23.250;2022-08-19T04:13:56;48406.19;;;-141.90;53.55
5298;BME280;14738;42.668;23.250;2022-08-19T04:16:24;48404.19;;;-141.90;53.04
5298;BME280;14738;42.668;23.250;2022-08-19T04:18:50;48396.25;;;-141.90;52.71
5298;BME280;14738;42.668;23.250;2022-08-19T04:21:22;48402.22;;;-141.90;52.06
5298;BME280;14738;42.668;23.250;2022-08-19T04:23:48;48412.13;;;-141.90;51.82
5298;BME280;14738;42.668;23.250;2022-08-19T04:26:20;48432.00;;;-141.90;52.08
5298;BME280;14738;42.668;23.250;2022-08-19T04:28:46;48430.00;;;-141.90;51.67
5298;BME280;14738;42.668;23.250;2022-08-19T04:31:20;48418.09;;;-141.90;51.52
5298;BME280;14738;42.668;23.250;2022-08-19T04:33:46;48392.28;;;-141.90;51.39
5298;BME280;14738;42.668;23.250;2022-08-19T04:36:21;48435.97;;;-141.90;50.91
5298;BME280;14738;42.668;23.250;2022-08-19T04:38:48;48416.09;;;-141.90;49.62
5298;BME280;14738;42.668;23.250;2022-08-19T04:41:15;48422.06;;;-141.90;49.73
5298;BME280;14738;42.668;23.250;2022-08-19T04:44:00;48412.13;;;-141.90;49.95
5298;BME280;14738;42.668;23.250;2022-08-19T04:46:25;48432.00;;;-141.90;49.87
5298;BME280;14738;42.668;23.250;2022-08-19T04:48:51;48459.78;;;-141.90;48.83
5298;BME280;14738;42.668;23.250;2022-08-19T04:51:17;48437.94;;;-141.90;47.19
5298;BME280;14738;42.668;23.250;2022-08-19T04:53:43;48439.94;;;-141.90;46.97
5298;BME280;14738;42.668;23.250;2022-08-19T04:56:11;48469.72;;;-141.90;46.78
5298;BME280;14738;42.668;23.250;2022-08-19T04:58:39;48499.50;;;-141.90;46.30
5298;BME280;14738;42.668;23.250;2022-08-19T05:01:06;48485.59;;;-141.90;44.64
5298;BME280;14738;42.668;23.250;2022-08-19T05:03:34;48491.56;;;-141.90;44.73
5298;BME280;14738;42.668;23.250;2022-08-19T05:06:07;48479.63;;;-141.90;45.13
5298;BME280;14738;42.668;23.250;2022-08-19T05:08:34;48463.75;;;-141.90;43.71
5298;BME280;14738;42.668;23.250;2022-08-19T05:11:01;48513.38;;;-141.90;43.58
5298;BME280;14738;42.668;23.250;2022-08-19T05:13:31;48497.50;;;-141.90;43.72
5298;BME280;14738;42.668;23.250;2022-08-19T05:15:58;48513.38;;;-141.90;44.02
5298;BME280;14738;42.668;23.250;2022-08-19T05:18:24;48469.72;;;-141.90;43.42
5298;BME280;14738;42.668;23.250;2022-08-19T05:21:11;48525.31;;;-141.90;43.37
5298;BME280;14738;42.668;23.250;2022-08-19T05:23:56;48469.72;;;-141.90;41.19
5298;BME280;14738;42.668;23.250;2022-08-19T05:26:22;48493.53;;;-141.90;41.42
5298;BME280;14738;42.668;23.250;2022-08-19T05:28:48;48529.28;;;-141.90;40.87
5298;BME280;14738;42.668;23.250;2022-08-19T05:31:13;48501.47;;;-141.90;41.22
5298;BME280;14738;42.668;23.250;2022-08-19T05:33:39;48547.13;;;-141.90;41.07
5298;BME280;14738;42.668;23.250;2022-08-19T05:36:05;48576.91;;;-141.90;40.68
5298;BME280;14738;42.668;23.250;2022-08-19T05:38:32;48551.09;;;-141.90;38.64
5298;BME280;14738;42.668;23.250;2022-08-19T05:40:58;48612.66;;;-141.90;37.79
5298;BME280;14738;42.668;23.250;2022-08-19T05:43:23;48644.41;;;-141.90;36.47
5298;BME280;14738;42.668;23.250;2022-08-19T05:45:48;48650.38;;;-141.90;36.22
5298;BME280;14738;42.668;23.250;2022-08-19T05:48:15;48624.56;;;-141.90;36.35
5298;BME280;14738;42.668;23.250;2022-08-19T05:50:45;48616.63;;;-141.90;35.75
5298;BME280;14738;42.668;23.250;2022-08-19T05:53:11;48658.31;;;-141.90;35.22
5298;BME280;14738;42.668;23.250;2022-08-19T05:55:37;48711.91;;;-141.90;33.79
5298;BME280;14738;42.668;23.250;2022-08-19T05:58:04;48739.72;;;-141.90;33.70
5298;BME280;14738;42.668;23.250;2022-08-19T06:00:29;48842.97;;;-141.90;29.26
5298;BME280;14738;42.668;23.250;2022-08-19T06:02:56;48874.72;;;-141.90;28.81
5298;BME280;14738;42.668;23.250;2022-08-19T06:05:24;48898.56;;;-141.90;27.97
5298;BME280;14738;42.668;23.250;2022-08-19T06:07:50;48938.25;;;-141.90;27.13
5298;BME280;14738;42.668;23.250;2022-08-19T06:10:15;48981.94;;;-141.90;27.52
5298;BME280;14738;42.668;23.250;2022-08-19T06:12:41;48977.97;;;-141.90;26.45
5298;BME280;14738;42.668;23.250;2022-08-19T06:15:11;49081.22;;;-141.90;26.24
5298;BME280;14738;42.668;23.250;2022-08-19T06:17:37;49176.53;;;-141.90;24.85
5298;BME280;14738;42.668;23.250;2022-08-19T06:20:08;49228.16;;;-141.90;24.25
5298;BME280;14738;42.668;23.250;2022-08-19T06:22:39;49222.19;;;-141.90;24.21
5298;BME280;14738;42.668;23.250;2022-08-19T06:25:05;49222.19;;;-141.90;23.81
5298;BME280;14738;42.668;23.250;2022-08-19T06:27:31;49204.31;;;-141.90;23.71
5298;BME280;14738;42.668;23.250;2022-08-19T06:29:58;49196.38;;;-141.90;23.26
5298;BME280;14738;42.668;23.250;2022-08-19T06:32:23;49255.94;;;-141.90;22.95
5298;BME280;14738;42.668;23.250;2022-08-19T06:34:49;49200.34;;;-141.90;23.69
5298;BME280;14738;42.668;23.250;2022-08-19T06:37:14;49160.66;;;-141.90;24.37
5298;BME280;14738;42.668;23.250;2022-08-19T06:39:41;49208.31;;;-141.90;24.30
5298;BME280;14738;42.668;23.250;2022-08-19T06:42:07;49371.13;;;-141.90;22.53
5298;BME280;14738;42.668;23.250;2022-08-19T06:44:38;49371.13;;;-141.90;21.63
5298;BME280;14738;42.668;23.250;2022-08-19T06:47:06;49250.00;;;-141.90;22.69
5298;BME280;14738;42.668;23.250;2022-08-19T06:49:32;49291.69;;;-141.90;22.08
5298;BME280;14738;42.668;23.250;2022-08-19T06:51:58;49204.31;;;-141.90;23.63
5298;BME280;14738;42.668;23.250;2022-08-19T06:54:25;49194.41;;;-141.90;23.79
5298;BME280;14738;42.668;23.250;2022-08-19T06:56:51;49176.53;;;-141.90;25.48
5298;BME280;14738;42.668;23.250;2022-08-19T06:59:19;49118.94;;;-141.90;25.14
5298;BME280;14738;42.668;23.250;2022-08-19T07:01:50;49093.13;;;-141.90;25.46
5298;BME280;14738;42.668;23.250;2022-08-19T07:04:19;49105.03;;;-141.90;25.72
5298;BME280;14738;42.668;23.250;2022-08-19T07:06:45;49051.44;;;-141.90;26.02
5298;BME280;14738;42.668;23.250;2022-08-19T07:09:13;48993.84;;;-141.90;25.81
5298;BME280;14738;42.668;23.250;2022-08-19T07:11:44;48995.84;;;-141.90;27.22
5298;BME280;14738;42.668;23.250;2022-08-19T07:14:09;48932.31;;;-141.90;28.71
5298;BME280;14738;42.668;23.250;2022-08-19T07:16:34;48981.94;;;-141.90;28.30
5298;BME280;14738;42.668;23.250;2022-08-19T07:19:00;48979.97;;;-141.90;27.45
5298;BME280;14738;42.668;23.250;2022-08-19T07:21:27;48948.19;;;-141.90;27.14
5298;BME280;14738;42.668;23.250;2022-08-19T07:23:55;48940.25;;;-141.90;29.29
5298;BME280;14738;42.668;23.250;2022-08-19T07:26:25;48918.41;;;-141.90;27.69
5298;BME280;14738;42.668;23.250;2022-08-19T07:28:52;48936.28;;;-141.90;28.15
5298;BME280;14738;42.668;23.250;2022-08-19T07:31:21;48882.66;;;-141.90;27.91
5298;BME280;14738;42.668;23.250;2022-08-19T07:33:49;48922.38;;;-141.90;27.99
5298;BME280;14738;42.668;23.250;2022-08-19T07:36:17;48900.53;;;-141.90;27.45
5298;BME280;14738;42.668;23.250;2022-08-19T07:38:46;48910.47;;;-141.90;29.03
5298;BME280;14738;42.668;23.250;2022-08-19T07:41:16;48898.56;;;-141.90;29.61
5298;BME280;14738;42.668;23.250;2022-08-19T07:43:42;48910.47;;;-141.90;28.91
5298;BME280;14738;42.668;23.250;2022-08-19T07:46:09;48896.56;;;-141.90;28.41
5298;BME280;14738;42.668;23.250;2022-08-19T07:48:35;48942.22;;;-141.90;27.75
5298;BME280;14738;42.668;23.250;2022-08-19T07:51:04;48940.25;;;-141.90;27.95
5298;BME280;14738;42.668;23.250;2022-08-19T07:53:31;48906.50;;;-141.90;27.34
5298;BME280;14738;42.668;23.250;2022-08-19T07:55:58;48981.94;;;-141.90;27.30
5298;BME280;14738;42.668;23.250;2022-08-19T07:58:31;48942.22;;;-141.90;27.76
5298;BME280;14738;42.668;23.250;2022-08-19T08:00:58;48928.34;;;-141.90;27.14
5298;BME280;14738;42.668;23.250;2022-08-19T08:03:26;48964.06;;;-141.90;27.16
5298;BME280;14738;42.668;23.250;2022-08-19T08:06:10;48987.91;;;-141.90;27.22
5298;BME280;14738;42.668;23.250;2022-08-19T08:08:54;48938.25;;;-141.90;27.43
5298;BME280;14738;42.668;23.250;2022-08-19T08:11:47;48956.13;;;-141.90;27.57
5298;BME280;14738;42.668;23.250;2022-08-19T08:14:18;48950.19;;;-141.90;27.50
5298;BME280;14738;42.668;23.250;2022-08-19T08:16:43;48997.81;;;-141.90;26.42
5298;BME280;14738;42.668;23.250;2022-08-19T08:19:12;48997.81;;;-141.90;26.75
5298;BME280;14738;42.668;23.250;2022-08-19T08:21:40;48976.00;;;-141.90;25.98
5298;BME280;14738;42.668;23.250;2022-08-19T08:24:06;48989.88;;;-141.90;26.69
5298;BME280;14738;42.668;23.250;2022-08-19T08:26:32;49013.72;;;-141.90;26.46
5298;BME280;14738;42.668;23.250;2022-08-19T08:28:58;49013.72;;;-141.90;25.43
5298;BME280;14738;42.668;23.250;2022-08-19T08:31:23;49007.75;;;-141.90;25.15
5298;BME280;14738;42.668;23.250;2022-08-19T08:33:49;49029.59;;;-141.90;24.69
5298;BME280;14738;42.668;23.250;2022-08-19T08:36:14;49059.38;;;-141.90;23.93
5298;BME280;14738;42.668;23.250;2022-08-19T08:38:41;49111.00;;;-141.90;24.52
5298;BME280;14738;42.668;23.250;2022-08-19T08:44:18;49063.34;;;-141.90;23.64
5298;BME280;14738;42.668;23.250;2022-08-19T08:46:50;49017.69;;;-141.90;23.73
5298;BME280;14738;42.668;23.250;2022-08-19T08:49:31;49067.31;;;-141.90;24.21
5298;BME280;14738;42.668;23.250;2022-08-19T08:54:39;49061.38;;;-141.90;22.68
5298;BME280;14738;42.668;23.250;2022-08-19T08:57:12;49049.44;;;-141.90;22.97
5298;BME280;14738;42.668;23.250;2022-08-19T08:59:40;49077.25;;;-141.90;22.69
5298;BME280;14738;42.668;23.250;2022-08-19T09:02:07;49061.38;;;-141.90;22.87
5298;BME280;14738;42.668;23.250;2022-08-19T09:04:35;49053.41;;;-141.90;22.43
5298;BME280;14738;42.668;23.250;2022-08-19T09:07:10;49079.22;;;-141.90;23.06
5298;BME280;14738;42.668;23.250;2022-08-19T09:09:40;49103.06;;;-141.90;22.08
5298;BME280;14738;42.668;23.250;2022-08-19T09:14:58;49083.22;;;-141.90;22.16
5298;BME280;14738;42.668;23.250;2022-08-19T09:17:28;49144.75;;;-141.90;22.41
5298;BME280;14738;42.668;23.250;2022-08-19T09:20:00;49122.91;;;-141.90;21.65
5298;BME280;14738;42.668;23.250;2022-08-19T09:22:32;49105.03;;;-141.90;20.81
5298;BME280;14738;42.668;23.250;2022-08-19T09:24:58;49091.16;;;-141.90;20.36
5298;BME280;14738;42.668;23.250;2022-08-19T09:27:25;49116.97;;;-141.90;21.43
5298;BME280;14738;42.668;23.250;2022-08-19T09:29:51;49097.09;;;-141.90;21.76
5298;BME280;14738;42.668;23.250;2022-08-19T09:32:19;49118.94;;;-141.90;20.64
5298;BME280;14738;42.668;23.250;2022-08-19T09:34:45;49116.97;;;-141.90;21.60
5298;BME280;14738;42.668;23.250;2022-08-19T09:37:11;49126.88;;;-141.90;21.74
5298;BME280;14738;42.668;23.250;2022-08-19T09:39:37;49109.03;;;-141.90;21.38
5298;BME280;14738;42.668;23.250;2022-08-19T09:42:04;49113.00;;;-141.90;21.86
5298;BME280;14738;42.668;23.250;2022-08-19T09:44:34;49116.97;;;-141.90;21.33
5298;BME280;14738;42.668;23.250;2022-08-19T09:46:59;49071.28;;;-141.90;20.48
5298;BME280;14738;42.668;23.250;2022-08-19T09:49:25;49124.91;;;-141.90;21.00
5298;BME280;14738;42.668;23.250;2022-08-19T09:51:52;49136.81;;;-141.90;21.02
5298;BME280;14738;42.668;23.250;2022-08-19T09:54:21;49095.13;;;-141.90;19.98
5298;BME280;14738;42.668;23.250;2022-08-19T09:56:47;49138.81;;;-141.90;19.95
5298;BME280;14738;42.668;23.250;2022-08-19T09:59:12;49101.06;;;-141.90;20.10
5298;BME280;14738;42.668;23.250;2022-08-19T10:01:38;49120.94;;;-141.90;19.46
5298;BME280;14738;42.668;23.250;2022-08-19T10:04:04;49095.13;;;-141.90;19.88
5298;BME280;14738;42.668;23.250;2022-08-19T10:06:35;49114.97;;;-141.90;19.91
5298;BME280;14738;42.668;23.250;2022-08-19T10:09:00;49122.91;;;-141.90;20.29
5298;BME280;14738;42.668;23.250;2022-08-19T10:11:27;49101.06;;;-141.90;20.12
5298;BME280;14738;42.668;23.250;2022-08-19T10:13:53;49124.91;;;-141.90;18.43
5298;BME280;14738;42.668;23.250;2022-08-19T10:16:20;49150.72;;;-141.90;18.43
5298;BME280;14738;42.668;23.250;2022-08-19T10:18:47;49067.31;;;-141.90;18.68
5298;BME280;14738;42.668;23.250;2022-08-19T10:23:43;49120.94;;;-141.90;19.03
5298;BME280;14738;42.668;23.250;2022-08-19T10:26:14;49105.03;;;-141.90;18.96
5298;BME280;14738;42.668;23.250;2022-08-19T10:28:40;49128.88;;;-141.90;19.10
5298;BME280;14738;42.668;23.250;2022-08-19T10:31:18;49126.88;;;-141.90;19.30
5298;BME280;14738;42.668;23.250;2022-08-19T10:33:45;49154.69;;;-141.90;18.76
5298;BME280;14738;42.668;23.250;2022-08-19T10:36:15;49176.53;;;-141.90;20.18
5298;BME280;14738;42.668;23.250;2022-08-19T10:38:42;49192.41;;;-141.90;19.22
5298;BME280;14738;42.668;23.250;2022-08-19T10:41:21;49156.66;;;-141.90;18.74
5298;BME280;14738;42.668;23.250;2022-08-19T10:43:57;49124.91;;;-141.90;19.40
5298;BME280;14738;42.668;23.250;2022-08-19T10:46:26;49132.84;;;-141.90;19.03
5298;BME280;14738;42.668;23.250;2022-08-19T10:48:53;49174.53;;;-141.90;19.32
5298;BME280;14738;42.668;23.250;2022-08-19T10:51:20;49152.69;;;-141.90;18.81
5298;BME280;14738;42.668;23.250;2022-08-19T10:54:04;49160.66;;;-141.90;18.83
5298;BME280;14738;42.668;23.250;2022-08-19T10:56:30;49105.03;;;-141.90;19.19
5298;BME280;14738;42.668;23.250;2022-08-19T10:59:17;49140.78;;;-141.90;20.42
5298;BME280;14738;42.668;23.250;2022-08-19T11:01:45;49089.16;;;-141.90;19.92
5298;BME280;14738;42.668;23.250;2022-08-19T11:04:12;49122.91;;;-141.90;20.49
5298;BME280;14738;42.668;23.250;2022-08-19T11:06:42;49113.00;;;-141.90;19.52
5298;BME280;14738;42.668;23.250;2022-08-19T11:09:09;49132.84;;;-141.90;19.03
5298;BME280;14738;42.668;23.250;2022-08-19T11:11:36;49101.06;;;-141.90;19.67
5298;BME280;14738;42.668;23.250;2022-08-19T11:14:06;49164.63;;;-141.90;19.67
5298;BME280;14738;42.668;23.250;2022-08-19T11:16:33;49126.88;;;-141.90;19.73
5298;BME280;14738;42.668;23.250;2022-08-19T11:19:00;49097.09;;;-141.90;19.37
5298;BME280;14738;42.668;23.250;2022-08-19T11:21:30;49093.13;;;-141.90;19.57
5298;BME280;14738;42.668;23.250;2022-08-19T11:24:00;49099.09;;;-141.90;20.74
5298;BME280;14738;42.668;23.250;2022-08-19T11:26:28;49130.84;;;-141.90;19.42
5298;BME280;14738;42.668;23.250;2022-08-19T11:28:55;49093.13;;;-141.90;18.96
5298;BME280;14738;42.668;23.250;2022-08-19T11:31:23;49107.03;;;-141.90;19.81
5298;BME280;14738;42.668;23.250;2022-08-19T11:33:50;49053.41;;;-141.90;19.14
